Time;durP1;ratioP1;P1;durP2;ratioP2;P2;SDS_P1;SDS_P2;PMS_P1;PMS_P2;Temp;Humidity;BMP_temperature;BMP_pressure;BME280_temperature;BME280_humidity;BME280_pressure;Samples;Min_cycle;Max_cycle;Signal;HPM_P1;HPM_P2
2022/10/07 00:04:44;;;;;;;5.18;2.30;;;;;;;;;;10198326;29;20044;-85
2022/10/07 00:09:48;;;;;;;2.88;1.38;;;;;;;;;;10184419;29;20387;-86
2022/10/07 00:14:56;;;;;;;2.95;1.08;;;;;;;;;;10179906;29;20051;-85
2022/10/07 00:20:00;;;;;;;4.10;1.30;;;;;;;;;;10215565;28;20044;-85
2022/10/07 00:25:04;;;;;;;6.25;1.13;;;;;;;;;;10194130;29;20050;-85
2022/10/07 00:30:11;;;;;;;2.78;0.95;;;;;;;;;;10181800;29;20538;-86
2022/10/07 00:35:14;;;;;;;1.75;0.93;;;;;;;;;;10189685;29;20047;-85
2022/10/07 00:40:21;;;;;;;3.60;1.10;;;;;;;;;;10200137;29;20048;-85
2022/10/07 00:45:27;;;;;;;1.85;1.10;;;;;;;;;;10192649;29;20095;-86
2022/10/07 00:50:30;;;;;;;3.27;1.07;;;;;;;;;;10207295;28;20062;-85
2022/10/07 00:55:34;;;;;;;1.38;1.08;;;;;;;;;;10186275;29;20136;-85
2022/10/07 01:00:40;;;;;;;1.52;0.90;;;;;;;;;;10199028;29;20040;-85
2022/10/07 01:05:43;;;;;;;2.90;1.00;;;;;;;;;;10205826;29;20071;-85
2022/10/07 01:10:58;;;;;;;2.38;0.88;;;;;;;;;;10200260;29;20585;-85
2022/10/07 01:16:07;;;;;;;2.53;1.00;;;;;;;;;;10190467;29;20055;-85
2022/10/07 01:21:27;;;;;;;2.58;1.25;;;;;;;;;;10214677;28;20044;-86
2022/10/07 01:26:51;;;;;;;2.72;1.38;;;;;;;;;;10199770;29;20131;-86
2022/10/07 01:32:03;;;;;;;2.58;1.33;;;;;;;;;;10209722;29;20071;-86
2022/10/07 01:37:13;;;;;;;3.60;1.33;;;;;;;;;;10214638;29;20043;-86
2022/10/07 01:42:20;;;;;;;5.85;1.30;;;;;;;;;;10213008;28;20582;-85
2022/10/07 01:47:28;;;;;;;4.95;1.10;;;;;;;;;;10214585;29;20514;-85
2022/10/07 01:52:57;;;;;;;2.63;1.23;;;;;;;;;;10214920;29;20594;-86
2022/10/07 01:58:12;;;;;;;3.08;1.15;;;;;;;;;;10193808;29;20103;-86
2022/10/07 02:03:32;;;;;;;4.10;1.17;;;;;;;;;;10195013;29;20051;-85
2022/10/07 02:08:40;;;;;;;1.77;0.90;;;;;;;;;;10204874;29;20410;-86
2022/10/07 02:13:56;;;;;;;1.77;1.00;;;;;;;;;;10201293;29;20046;-85
2022/10/07 02:19:06;;;;;;;1.75;0.90;;;;;;;;;;10196912;29;20091;-85
2022/10/07 02:24:11;;;;;;;2.60;0.77;;;;;;;;;;10196692;29;20047;-86
2022/10/07 02:29:22;;;;;;;2.08;0.80;;;;;;;;;;10203638;28;20046;-86
2022/10/07 02:34:31;;;;;;;1.60;0.90;;;;;;;;;;10211943;29;20058;-85
2022/10/07 02:39:34;;;;;;;2.97;0.90;;;;;;;;;;10179514;29;20499;-86
2022/10/07 02:44:46;;;;;;;1.80;0.75;;;;;;;;;;10187624;29;20044;-85
2022/10/07 02:49:52;;;;;;;1.75;1.00;;;;;;;;;;10195806;29;20036;-86
2022/10/07 02:54:59;;;;;;;2.78;1.17;;;;;;;;;;10195805;29;20066;-85
2022/10/07 03:00:08;;;;;;;1.92;0.82;;;;;;;;;;10207342;29;20044;-85
2022/10/07 03:05:20;;;;;;;1.17;0.73;;;;;;;;;;10203470;29;20032;-86
2022/10/07 03:10:27;;;;;;;1.23;0.93;;;;;;;;;;10184796;29;20063;-85
2022/10/07 03:15:36;;;;;;;2.90;0.90;;;;;;;;;;10194705;29;20044;-86
2022/10/07 03:20:43;;;;;;;2.47;1.23;;;;;;;;;;10195325;28;20047;-85
2022/10/07 03:25:50;;;;;;;3.53;0.93;;;;;;;;;;10200471;29;20042;-85
2022/10/07 03:31:03;;;;;;;2.60;1.13;;;;;;;;;;10177060;29;20048;-86
2022/10/07 03:36:08;;;;;;;3.92;1.17;;;;;;;;;;10203329;29;20040;-85
2022/10/07 03:41:15;;;;;;;1.88;1.25;;;;;;;;;;10198973;29;20099;-85
2022/10/07 03:46:20;;;;;;;3.38;1.00;;;;;;;;;;10181300;29;20131;-85
2022/10/07 03:51:25;;;;;;;1.98;0.90;;;;;;;;;;10193743;29;20754;-86
2022/10/07 03:56:28;;;;;;;1.13;0.65;;;;;;;;;;10202930;29;20414;-86
2022/10/07 04:01:33;;;;;;;3.22;0.88;;;;;;;;;;10202534;29;20262;-86
2022/10/07 04:06:37;;;;;;;0.88;0.63;;;;;;;;;;10187807;29;20036;-85
2022/10/07 04:11:45;;;;;;;2.30;1.00;;;;;;;;;;10196407;28;20099;-86
2022/10/07 04:16:49;;;;;;;8.38;0.70;;;;;;;;;;10184613;29;20123;-86
2022/10/07 04:21:53;;;;;;;1.92;0.70;;;;;;;;;;10190489;29;20043;-86
2022/10/07 04:26:57;;;;;;;3.58;0.80;;;;;;;;;;10161764;29;20047;-86
2022/10/07 04:32:02;;;;;;;1.23;0.60;;;;;;;;;;10193908;29;20423;-86
2022/10/07 04:37:06;;;;;;;1.85;0.90;;;;;;;;;;10188389;29;20054;-85
2022/10/07 04:43:17;;;;;;;1.58;0.88;;;;;;;;;;10182252;29;20044;-85
2022/10/07 04:47:37;;;;;;;1.42;0.80;;;;;;;;;;10198781;29;20050;-86
2022/10/07 04:52:41;;;;;;;1.70;0.82;;;;;;;;;;10216391;29;20131;-86
2022/10/07 04:57:45;;;;;;;2.33;1.25;;;;;;;;;;10188626;29;20044;-86
2022/10/07 05:02:55;;;;;;;2.92;1.00;;;;;;;;;;10194455;29;20044;-86
2022/10/07 05:07:59;;;;;;;2.37;0.70;;;;;;;;;;10209962;29;20036;-86
2022/10/07 05:13:04;;;;;;;3.92;0.80;;;;;;;;;;10193922;29;20107;-87
2022/10/07 05:18:09;;;;;;;1.50;0.90;;;;;;;;;;10208512;29;20096;-86
2022/10/07 05:23:13;;;;;;;1.40;0.70;;;;;;;;;;10202976;29;20047;-85
2022/10/07 05:28:17;;;;;;;1.48;0.80;;;;;;;;;;10202854;29;20574;-86
2022/10/07 05:33:22;;;;;;;0.60;0.55;;;;;;;;;;10181648;29;20627;-86
2022/10/07 05:38:27;;;;;;;1.42;0.60;;;;;;;;;;10189757;29;20099;-85
2022/10/07 05:43:33;;;;;;;2.08;0.95;;;;;;;;;;10189122;29;20040;-85
2022/10/07 05:48:40;;;;;;;1.70;0.80;;;;;;;;;;10214802;29;20040;-86
2022/10/07 05:53:45;;;;;;;1.53;0.97;;;;;;;;;;10203748;29;20040;-86
2022/10/07 05:58:50;;;;;;;1.98;0.77;;;;;;;;;;10206476;29;20054;-85
2022/10/07 06:03:56;;;;;;;1.95;1.00;;;;;;;;;;10206154;29;20075;-88
2022/10/07 06:14:24;;;;;;;2.00;0.98;;;;;;;;;;10202370;29;20096;-87
2022/10/07 06:19:31;;;;;;;3.30;0.93;;;;;;;;;;10215028;29;20130;-87
2022/10/07 06:24:38;;;;;;;1.10;0.88;;;;;;;;;;10199907;29;20413;-87
2022/10/07 06:29:44;;;;;;;3.55;1.38;;;;;;;;;;10223285;29;20422;-88
2022/10/07 06:34:49;;;;;;;1.65;1.25;;;;;;;;;;10207022;29;20040;-88
2022/10/07 06:39:52;;;;;;;2.03;1.42;;;;;;;;;;10222076;29;20044;-87
2022/10/07 06:44:58;;;;;;;3.67;2.33;;;;;;;;;;10206671;29;20071;-87
2022/10/07 06:50:05;;;;;;;3.28;1.85;;;;;;;;;;10222690;28;20047;-88
2022/10/07 06:55:10;;;;;;;1.98;1.30;;;;;;;;;;10206399;29;20176;-87
2022/10/07 07:00:15;;;;;;;1.77;0.90;;;;;;;;;;10222052;28;20203;-88
2022/10/07 07:05:26;;;;;;;5.63;1.15;;;;;;;;;;10206668;29;20541;-87
2022/10/07 07:10:29;;;;;;;1.55;0.90;;;;;;;;;;10222486;28;20043;-87
2022/10/07 07:15:34;;;;;;;3.10;1.00;;;;;;;;;;10221549;29;20047;-88
2022/10/07 07:20:43;;;;;;;2.08;1.00;;;;;;;;;;10222276;28;20099;-88
2022/10/07 07:25:47;;;;;;;3.25;0.70;;;;;;;;;;10222203;29;20099;-88
2022/10/07 07:30:51;;;;;;;4.10;1.20;;;;;;;;;;10206268;29;20590;-88
2022/10/07 07:35:56;;;;;;;4.15;1.33;;;;;;;;;;10221810;29;20044;-88
2022/10/07 07:41:08;;;;;;;3.13;1.30;;;;;;;;;;10210410;28;20045;-88
2022/10/07 07:46:12;;;;;;;2.92;1.45;;;;;;;;;;10166527;29;20052;-87
2022/10/07 07:51:17;;;;;;;2.97;1.08;;;;;;;;;;10179534;29;20055;-88
2022/10/07 07:56:23;;;;;;;1.73;0.93;;;;;;;;;;10198634;29;20518;-87
2022/10/07 08:01:30;;;;;;;4.43;1.15;;;;;;;;;;10182923;29;20066;-88
2022/10/07 08:06:36;;;;;;;3.78;1.25;;;;;;;;;;10198740;29;20048;-88
2022/10/07 08:11:44;;;;;;;8.25;1.88;;;;;;;;;;10193866;29;20090;-88
2022/10/07 08:16:50;;;;;;;2.40;1.20;;;;;;;;;;10215971;29;20100;-87
2022/10/07 08:22:00;;;;;;;8.18;2.03;;;;;;;;;;10186804;28;20041;-88
2022/10/07 08:27:06;;;;;;;4.50;1.58;;;;;;;;;;10212586;29;20050;-87
2022/10/07 08:32:10;;;;;;;3.35;1.17;;;;;;;;;;10232588;29;20391;-88
2022/10/07 08:37:15;;;;;;;5.20;1.52;;;;;;;;;;10214824;29;20122;-88
2022/10/07 08:42:27;;;;;;;3.88;1.52;;;;;;;;;;10215935;29;20770;-88
2022/10/07 08:47:38;;;;;;;5.38;1.50;;;;;;;;;;10200451;29;20080;-87
2022/10/07 08:52:50;;;;;;;10.00;1.92;;;;;;;;;;10191576;29;20073;-88
2022/10/07 08:58:22;;;;;;;3.20;1.23;;;;;;;;;;10186046;29;20067;-87
2022/10/07 09:03:42;;;;;;;3.20;1.20;;;;;;;;;;10230523;29;20059;-88
2022/10/07 09:08:57;;;;;;;3.22;0.80;;;;;;;;;;10216007;29;20047;-88
2022/10/07 09:14:18;;;;;;;1.35;0.70;;;;;;;;;;10214217;29;20099;-88
2022/10/07 09:19:29;;;;;;;2.08;0.90;;;;;;;;;;10229178;29;20067;-88
2022/10/07 09:24:35;;;;;;;2.28;0.90;;;;;;;;;;10229719;29;20047;-88
2022/10/07 09:29:41;;;;;;;5.00;1.00;;;;;;;;;;10229284;29;20130;-88
2022/10/07 09:34:47;;;;;;;2.63;0.85;;;;;;;;;;10214702;29;20597;-88
2022/10/07 09:39:56;;;;;;;3.95;0.90;;;;;;;;;;10214570;29;20068;-88
2022/10/07 09:45:02;;;;;;;2.92;0.60;;;;;;;;;;10229507;29;20127;-87
2022/10/07 09:50:31;;;;;;;1.92;0.90;;;;;;;;;;10213618;29;20055;-89
2022/10/07 09:55:42;;;;;;;1.90;0.70;;;;;;;;;;10229403;29;20044;-88
2022/10/07 10:00:47;;;;;;;2.50;0.60;;;;;;;;;;10212963;29;20051;-88
2022/10/07 10:05:56;;;;;;;3.72;1.13;;;;;;;;;;10179800;29;20100;-88
2022/10/07 10:11:03;;;;;;;3.40;0.60;;;;;;;;;;10175210;29;20135;-88
2022/10/07 10:16:27;;;;;;;1.88;0.70;;;;;;;;;;10201600;29;20130;-88
2022/10/07 10:21:34;;;;;;;5.82;0.80;;;;;;;;;;10212454;29;20549;-88
2022/10/07 10:26:52;;;;;;;2.67;0.70;;;;;;;;;;10196622;29;20052;-88
2022/10/07 10:32:20;;;;;;;5.03;1.33;;;;;;;;;;10174525;29;20048;-88
2022/10/07 10:37:40;;;;;;;3.08;0.95;;;;;;;;;;10171132;29;20039;-87
2022/10/07 10:42:53;;;;;;;5.28;1.10;;;;;;;;;;10205653;29;20110;-88
2022/10/07 10:48:17;;;;;;;5.07;1.25;;;;;;;;;;10196716;29;20056;-88
2022/10/07 10:53:34;;;;;;;4.35;1.17;;;;;;;;;;10211357;29;20499;-89
2022/10/07 10:58:57;;;;;;;3.30;0.85;;;;;;;;;;10210672;29;20047;-88
2022/10/07 11:04:32;;;;;;;0.75;0.50;;;;;;;;;;10211307;29;20494;-88
2022/10/07 11:09:40;;;;;;;3.85;0.93;;;;;;;;;;10227521;29;20142;-88
2022/10/07 11:14:51;;;;;;;4.30;1.30;;;;;;;;;;10218591;29;20103;-88
2022/10/07 11:20:05;;;;;;;3.67;0.93;;;;;;;;;;10201712;29;20072;-88
2022/10/07 11:25:20;;;;;;;3.83;0.93;;;;;;;;;;10196903;29;20043;-88
2022/10/07 11:30:41;;;;;;;3.60;0.95;;;;;;;;;;10211543;29;20696;-88
2022/10/07 11:35:51;;;;;;;3.20;0.80;;;;;;;;;;10209908;29;20097;-88
2022/10/07 11:40:58;;;;;;;4.15;0.90;;;;;;;;;;10201004;29;20047;-87
2022/10/07 11:46:08;;;;;;;4.80;1.00;;;;;;;;;;10209880;29;20067;-89
2022/10/07 11:51:23;;;;;;;5.85;1.02;;;;;;;;;;10211305;29;20044;-88
2022/10/07 11:56:28;;;;;;;3.22;0.70;;;;;;;;;;10210123;29;20183;-88
2022/10/07 12:01:51;;;;;;;2.25;0.73;;;;;;;;;;10215890;29;20048;-88
2022/10/07 12:07:55;;;;;;;2.92;0.70;;;;;;;;;;10219292;29;20134;-88
2022/10/07 12:13:01;;;;;;;2.90;0.93;;;;;;;;;;10137252;29;20056;-88
2022/10/07 12:18:27;;;;;;;2.40;0.80;;;;;;;;;;10188871;29;20048;-88
2022/10/07 12:23:45;;;;;;;1.15;0.60;;;;;;;;;;10216602;29;20513;-88
2022/10/07 12:29:00;;;;;;;2.08;0.80;;;;;;;;;;10255960;29;20695;-87
2022/10/07 12:34:21;;;;;;;4.25;0.90;;;;;;;;;;10255955;29;20051;-87
2022/10/07 12:39:35;;;;;;;2.30;0.40;;;;;;;;;;10217007;29;20609;-88
2022/10/07 12:44:44;;;;;;;1.52;0.68;;;;;;;;;;10215797;29;20138;-88
2022/10/07 12:49:57;;;;;;;2.88;1.20;;;;;;;;;;10215385;29;20052;-89
2022/10/07 12:55:06;;;;;;;3.78;1.00;;;;;;;;;;10205018;29;20446;-88
2022/10/07 13:00:13;;;;;;;2.13;0.60;;;;;;;;;;10215280;29;20115;-88
2022/10/07 13:05:50;;;;;;;1.27;0.70;;;;;;;;;;10215030;29;20048;-88
2022/10/07 13:16:20;;;;;;;2.63;0.65;;;;;;;;;;10260475;28;20279;-85
2022/10/07 13:21:29;;;;;;;0.65;0.38;;;;;;;;;;10295035;28;20141;-85
2022/10/07 13:26:34;;;;;;;2.65;0.63;;;;;;;;;;10283401;28;20536;-86
2022/10/07 13:31:37;;;;;;;5.28;1.20;;;;;;;;;;10258131;28;20125;-85
2022/10/07 13:36:43;;;;;;;3.72;0.93;;;;;;;;;;10244081;28;20133;-85
2022/10/07 13:41:47;;;;;;;;;;;;;;;;;;10272939;28;20425;-86
2022/10/07 13:46:56;;;;;;;1.10;0.70;;;;;;;;;;10251608;28;19926;-85
2022/10/07 13:52:04;;;;;;;1.52;0.70;;;;;;;;;;10265214;28;20414;-85
2022/10/07 13:57:09;;;;;;;3.53;0.90;;;;;;;;;;10283425;28;20373;-85
2022/10/07 14:02:15;;;;;;;1.02;0.30;;;;;;;;;;10253749;28;20047;-85
2022/10/07 14:07:21;;;;;;;1.17;0.40;;;;;;;;;;10300269;28;20129;-85
2022/10/07 14:12:30;;;;;;;1.67;0.35;;;;;;;;;;10255005;28;20150;-85
2022/10/07 14:17:40;;;;;;;0.70;0.30;;;;;;;;;;10203800;29;20074;-85
2022/10/07 14:22:48;;;;;;;0.47;0.20;;;;;;;;;;10205984;28;20457;-84
2022/10/07 14:27:55;;;;;;;1.40;0.40;;;;;;;;;;10205048;29;20681;-85
2022/10/07 14:38:29;;;;;;;1.17;0.35;;;;;;;;;;10210546;29;20051;-85
2022/10/07 14:43:35;;;;;;;2.03;0.40;;;;;;;;;;10201825;29;20051;-85
2022/10/07 14:48:38;;;;;;;3.23;1.00;;;;;;;;;;10225058;29;20052;-85
2022/10/07 14:53:44;;;;;;;1.95;0.80;;;;;;;;;;10224499;29;20297;-85
2022/10/07 14:58:47;;;;;;;1.77;0.40;;;;;;;;;;10207073;29;20054;-85
2022/10/07 15:03:51;;;;;;;1.50;0.55;;;;;;;;;;10208838;29;20047;-85
2022/10/07 15:08:56;;;;;;;5.05;0.60;;;;;;;;;;10223875;29;20055;-85
2022/10/07 15:14:03;;;;;;;0.93;0.30;;;;;;;;;;10226794;28;20047;-85
2022/10/07 15:19:07;;;;;;;0.98;0.50;;;;;;;;;;10257037;28;20039;-85
2022/10/07 15:24:13;;;;;;;2.28;0.65;;;;;;;;;;10265410;28;20073;-84
2022/10/07 15:29:16;;;;;;;2.40;0.50;;;;;;;;;;10244585;28;20043;-85
2022/10/07 15:34:20;;;;;;;2.28;0.30;;;;;;;;;;10248142;28;20121;-84
2022/10/07 15:39:25;;;;;;;1.27;0.30;;;;;;;;;;10258873;28;20807;-85
2022/10/07 15:44:28;;;;;;;0.68;0.30;;;;;;;;;;10510349;23;20112;-85
2022/10/07 15:49:32;;;;;;;1.13;0.38;;;;;;;;;;10361164;23;20061;-85
2022/10/07 15:54:37;;;;;;;4.60;1.05;;;;;;;;;;10290144;28;20089;-85
2022/10/07 15:59:43;;;;;;;1.60;0.50;;;;;;;;;;10316574;28;20072;-85
2022/10/07 16:10:19;;;;;;;2.60;0.40;;;;;;;;;;10448620;23;20336;-84
2022/10/07 16:15:22;;;;;;;1.40;0.50;;;;;;;;;;10263624;28;20047;-85
2022/10/07 16:20:25;;;;;;;0.82;0.30;;;;;;;;;;10249351;28;20045;-83
2022/10/07 16:25:30;;;;;;;0.80;0.47;;;;;;;;;;10237809;28;20149;-84
2022/10/07 16:30:42;;;;;;;1.13;0.50;;;;;;;;;;10232343;28;20091;-83
2022/10/07 16:35:46;;;;;;;1.45;0.52;;;;;;;;;;10237688;28;20499;-83
2022/10/07 16:40:54;;;;;;;1.17;0.45;;;;;;;;;;10243373;28;20320;-84
2022/10/07 16:46:01;;;;;;;3.30;0.70;;;;;;;;;;10244970;28;20290;-83
2022/10/07 16:51:08;;;;;;;2.03;0.63;;;;;;;;;;10233337;28;20067;-84
2022/10/07 16:56:14;;;;;;;2.28;0.85;;;;;;;;;;10269521;28;20047;-84
2022/10/07 17:01:18;;;;;;;2.00;0.88;;;;;;;;;;10255320;28;20042;-84
2022/10/07 17:06:23;;;;;;;1.88;1.00;;;;;;;;;;10240152;28;20333;-84
2022/10/07 17:11:30;;;;;;;2.42;0.88;;;;;;;;;;10292663;28;20039;-85
2022/10/07 17:16:36;;;;;;;1.10;0.73;;;;;;;;;;10287450;28;20042;-85
2022/10/07 17:21:41;;;;;;;2.47;1.20;;;;;;;;;;10259567;28;20462;-84
2022/10/07 17:26:46;;;;;;;1.35;0.90;;;;;;;;;;10303736;28;20076;-84
2022/10/07 17:31:50;;;;;;;1.17;0.73;;;;;;;;;;10301406;28;20526;-84
2022/10/07 17:36:54;;;;;;;2.03;0.98;;;;;;;;;;10285938;28;20806;-84
2022/10/07 17:41:58;;;;;;;2.03;0.80;;;;;;;;;;10301069;28;20146;-84
2022/10/07 17:47:03;;;;;;;1.30;0.90;;;;;;;;;;10277108;28;20098;-84
2022/10/07 17:52:07;;;;;;;2.80;1.30;;;;;;;;;;10267421;28;20045;-84
2022/10/07 17:57:11;;;;;;;2.40;1.40;;;;;;;;;;10283337;28;20050;-85
2022/10/07 18:02:15;;;;;;;3.92;1.75;;;;;;;;;;10275565;28;20050;-84
2022/10/07 18:07:18;;;;;;;3.20;1.67;;;;;;;;;;10267000;28;20497;-84
2022/10/07 18:17:46;;;;;;;3.78;1.70;;;;;;;;;;10276260;28;20551;-84
2022/10/07 18:22:54;;;;;;;4.88;1.70;;;;;;;;;;10284612;28;20046;-84
2022/10/07 18:28:01;;;;;;;3.67;1.83;;;;;;;;;;10267281;28;20052;-84
2022/10/07 18:33:04;;;;;;;2.63;1.80;;;;;;;;;;10277397;28;20108;-84
2022/10/07 18:38:08;;;;;;;2.85;1.23;;;;;;;;;;10282617;28;20395;-84
2022/10/07 18:43:12;;;;;;;3.05;1.10;;;;;;;;;;10281750;28;20041;-83
2022/10/07 18:48:16;;;;;;;2.08;1.30;;;;;;;;;;10298058;28;20112;-83
2022/10/07 18:53:19;;;;;;;4.72;1.58;;;;;;;;;;10262614;28;20073;-83
2022/10/07 18:58:24;;;;;;;3.17;1.85;;;;;;;;;;10283750;28;20042;-83
2022/10/07 19:03:27;;;;;;;5.57;2.55;;;;;;;;;;10287645;28;20050;-81
2022/10/07 19:08:31;;;;;;;6.57;3.13;;;;;;;;;;10255916;28;20065;-82
2022/10/07 19:13:49;;;;;;;8.52;3.95;;;;;;;;;;10267790;28;20051;-82
2022/10/07 19:18:54;;;;;;;7.70;3.58;;;;;;;;;;10251917;28;20053;-82
2022/10/07 19:24:00;;;;;;;6.53;3.33;;;;;;;;;;10274801;28;20034;-82
2022/10/07 19:29:07;;;;;;;6.45;3.30;;;;;;;;;;10255502;28;20035;-82
2022/10/07 19:34:12;;;;;;;6.28;3.15;;;;;;;;;;10278731;28;20086;-82
2022/10/07 19:39:18;;;;;;;5.43;3.20;;;;;;;;;;10277233;28;20129;-83
2022/10/07 19:44:22;;;;;;;9.35;4.30;;;;;;;;;;10269551;28;20064;-82
2022/10/07 19:49:27;;;;;;;9.43;3.97;;;;;;;;;;10279077;28;20418;-82
2022/10/07 19:54:34;;;;;;;7.97;3.88;;;;;;;;;;10274825;28;20127;-82
2022/10/07 19:59:39;;;;;;;9.00;4.30;;;;;;;;;;10290735;28;20049;-82
2022/10/07 20:04:43;;;;;;;7.05;4.45;;;;;;;;;;10278319;28;20560;-82
2022/10/07 20:09:46;;;;;;;10.02;4.55;;;;;;;;;;10302142;28;20046;-82
2022/10/07 20:14:51;;;;;;;8.23;4.80;;;;;;;;;;10287224;28;20457;-82
2022/10/07 20:19:55;;;;;;;8.15;3.63;;;;;;;;;;10285618;28;20046;-82
2022/10/07 20:24:58;;;;;;;5.55;2.70;;;;;;;;;;10308734;28;20501;-82
2022/10/07 20:30:08;;;;;;;4.30;2.50;;;;;;;;;;10293058;28;20122;-81
2022/10/07 20:35:13;;;;;;;7.40;3.47;;;;;;;;;;10282251;28;20046;-82
2022/10/07 20:50:56;;;;;;;4.35;2.97;;;;;;;;;;10306500;28;20034;-82
2022/10/07 20:56:03;;;;;;;7.38;4.32;;;;;;;;;;10307353;28;20556;-81
2022/10/07 21:01:08;;;;;;;8.25;4.38;;;;;;;;;;10305955;28;20048;-81
2022/10/07 21:06:11;;;;;;;7.72;3.80;;;;;;;;;;10280888;28;20060;-81
2022/10/07 21:11:15;;;;;;;4.28;2.80;;;;;;;;;;10311760;28;20038;-81
2022/10/07 21:16:20;;;;;;;5.43;2.85;;;;;;;;;;10290598;28;20038;-81
2022/10/07 21:21:24;;;;;;;4.30;2.40;;;;;;;;;;10316210;28;20506;-79
2022/10/07 21:26:27;;;;;;;3.65;2.10;;;;;;;;;;10317419;28;20058;-80
2022/10/07 21:31:32;;;;;;;3.00;1.77;;;;;;;;;;10300002;28;20129;-80
2022/10/07 21:36:37;;;;;;;5.15;1.98;;;;;;;;;;10319072;28;20072;-80
2022/10/07 21:41:44;;;;;;;6.15;1.60;;;;;;;;;;10288143;28;20046;-81
2022/10/07 21:46:49;;;;;;;;;;;;;;;;;;10545634;23;20047;-87
2022/10/07 21:51:52;;;;;;;2.15;1.23;;;;;;;;;;10297178;28;20502;-87
2022/10/07 21:56:56;;;;;;;2.53;1.35;;;;;;;;;;10286291;28;20050;-87
2022/10/07 22:02:01;;;;;;;2.92;1.52;;;;;;;;;;10283719;28;20445;-86
2022/10/07 22:12:26;;;;;;;2.50;1.20;;;;;;;;;;10288346;28;20417;-87
2022/10/07 22:17:33;;;;;;;2.78;1.40;;;;;;;;;;10286288;28;20043;-88
2022/10/07 22:22:37;;;;;;;2.78;1.15;;;;;;;;;;10278927;28;20133;-87
2022/10/07 22:27:40;;;;;;;2.20;1.33;;;;;;;;;;10277922;28;20170;-87
2022/10/07 22:32:45;;;;;;;2.40;1.50;;;;;;;;;;10270208;28;20476;-87
2022/10/07 22:37:49;;;;;;;2.47;1.50;;;;;;;;;;10270950;28;20113;-87
2022/10/07 22:42:52;;;;;;;2.72;1.45;;;;;;;;;;10296527;28;20137;-86
2022/10/07 22:47:57;;;;;;;1.63;1.30;;;;;;;;;;10285618;28;20046;-88
2022/10/07 22:53:01;;;;;;;4.38;1.35;;;;;;;;;;10281020;28;20426;-87
2022/10/07 22:58:05;;;;;;;2.47;1.48;;;;;;;;;;10286607;28;20572;-87
2022/10/07 23:03:11;;;;;;;1.95;1.30;;;;;;;;;;10262561;28;20051;-86
2022/10/07 23:08:14;;;;;;;2.40;1.27;;;;;;;;;;10290725;28;20046;-86
2022/10/07 23:13:18;;;;;;;2.55;1.45;;;;;;;;;;10303466;28;20094;-87
2022/10/07 23:18:23;;;;;;;3.30;1.50;;;;;;;;;;10293356;28;20137;-87
2022/10/07 23:23:27;;;;;;;2.85;1.17;;;;;;;;;;10270801;28;20046;-87
2022/10/07 23:28:33;;;;;;;2.42;1.10;;;;;;;;;;10270616;28;20059;-88
2022/10/07 23:33:38;;;;;;;2.60;1.33;;;;;;;;;;10269405;28;20130;-87
2022/10/07 23:38:43;;;;;;;4.43;1.40;;;;;;;;;;10302715;28;20050;-86
2022/10/07 23:43:49;;;;;;;2.08;1.02;;;;;;;;;;10292430;28;20048;-87
2022/10/07 23:48:54;;;;;;;0.70;0.68;;;;;;;;;;10286342;28;20145;-87
2022/10/07 23:53:59;;;;;;;2.78;0.82;;;;;;;;;;10278691;28;20501;-87
2022/10/07 23:59:03;;;;;;;1.90;1.02;;;;;;;;;;10270645;28;20066;-86
